Terminal Aerodrome Forecast
Issued by NWS Knoxville/Tri Cities, TN

Home | Current Version | Previous Version | Text Only | Print | Product List | Glossary On
Versions: 1 2 3 4 5 6 7 8 9 10 11 12 13 14 15 16
000
FTUS44 KMRX 050520
TAFTRI
TAF
KTRI 050520Z 0506/0606 26008KT P6SM VCSH BKN050
      TEMPO 0506/0507 -RA BKN025
     FM051400 27010G17KT P6SM VCSH BKN035
     FM052300 27008KT 5SM -SHRA BR SCT015 OVC030=

USA.gov is the U.S. government's official web portal to all federal, state and local government web resources and services.